createdAt,value
2022-07-28T00:00:08.971Z,16.90
2022-07-28T00:04:22.084Z,16.90
2022-07-28T00:08:36.556Z,16.90
2022-07-28T00:12:50.053Z,16.80
2022-07-28T00:17:03.175Z,16.80
2022-07-28T00:21:16.287Z,16.80
2022-07-28T00:25:30.725Z,16.80
2022-07-28T00:29:49.706Z,16.80
2022-07-28T00:34:03.233Z,16.90
2022-07-28T00:38:16.568Z,16.90
2022-07-28T00:42:31.558Z,16.80
2022-07-28T00:46:44.941Z,16.80
2022-07-28T00:50:58.400Z,16.70
2022-07-28T00:55:12.153Z,16.70
2022-07-28T00:59:26.649Z,16.70
2022-07-28T01:03:43.041Z,16.70
2022-07-28T01:08:02.877Z,16.60
2022-07-28T01:12:24.532Z,16.60
2022-07-28T01:16:46.202Z,16.70
2022-07-28T01:21:04.577Z,16.60
2022-07-28T01:25:24.640Z,16.60
2022-07-28T01:30:04.581Z,16.60
2022-07-28T01:34:25.246Z,16.60
2022-07-28T01:38:40.399Z,16.50
2022-07-28T01:42:57.782Z,16.60
2022-07-28T01:47:12.335Z,16.60
2022-07-28T01:51:30.437Z,16.60
2022-07-28T01:55:45.346Z,16.70
2022-07-28T02:00:00.006Z,16.70
2022-07-28T02:04:16.678Z,16.70
2022-07-28T02:08:33.013Z,16.70
2022-07-28T02:12:49.999Z,16.70
2022-07-28T02:17:08.319Z,16.70
2022-07-28T02:21:22.411Z,16.70
2022-07-28T02:25:39.024Z,16.70
2022-07-28T02:29:58.417Z,16.70
2022-07-28T02:34:16.805Z,16.70
2022-07-28T02:38:32.261Z,16.70
2022-07-28T02:42:50.824Z,16.70
2022-07-28T02:47:09.358Z,16.80
2022-07-28T02:51:26.029Z,16.80
2022-07-28T02:55:41.728Z,16.80
2022-07-28T02:59:57.575Z,16.80
2022-07-28T03:04:11.946Z,16.80
2022-07-28T03:08:25.278Z,16.80
2022-07-28T03:12:38.504Z,16.70
2022-07-28T03:16:55.675Z,16.70
2022-07-28T03:21:09.011Z,16.60
2022-07-28T03:25:27.615Z,16.60
2022-07-28T03:29:42.733Z,16.50
2022-07-28T03:33:57.739Z,16.40
2022-07-28T03:38:17.988Z,16.50
2022-07-28T03:42:33.610Z,16.50
2022-07-28T03:46:46.972Z,16.40
2022-07-28T03:51:01.392Z,16.40
2022-07-28T03:55:16.333Z,16.40
2022-07-28T03:59:29.498Z,16.40
2022-07-28T04:03:44.429Z,16.30
2022-07-28T04:07:58.978Z,16.30
2022-07-28T04:12:12.152Z,16.40
2022-07-28T04:16:27.567Z,16.30
2022-07-28T04:20:40.764Z,16.30
2022-07-28T04:24:55.280Z,16.30
2022-07-28T04:29:08.512Z,16.30
2022-07-28T04:33:21.777Z,16.40
2022-07-28T04:37:34.853Z,16.40
2022-07-28T04:41:49.498Z,16.30
2022-07-28T04:46:02.658Z,16.40
2022-07-28T04:50:19.031Z,16.50
2022-07-28T04:54:32.141Z,16.50
2022-07-28T04:58:46.620Z,16.60
2022-07-28T05:03:02.705Z,16.50
2022-07-28T05:07:16.073Z,16.50
2022-07-28T05:11:29.454Z,16.60
2022-07-28T05:15:43.943Z,16.80
2022-07-28T05:19:57.081Z,16.90
2022-07-28T05:24:10.766Z,17.00
2022-07-28T05:28:24.033Z,17.10
2022-07-28T05:32:38.762Z,17.30
2022-07-28T05:36:51.857Z,17.50
2022-07-28T05:41:06.559Z,17.60
2022-07-28T05:45:19.742Z,17.70
2022-07-28T05:49:34.340Z,18.90
2022-07-28T05:53:47.416Z,19.80
2022-07-28T05:58:01.320Z,20.50
2022-07-28T06:02:14.637Z,20.80
2022-07-28T06:06:29.198Z,21.00
2022-07-28T06:11:02.084Z,21.40
2022-07-28T06:15:16.505Z,21.70
2022-07-28T06:19:29.589Z,21.90
2022-07-28T06:23:44.059Z,21.80
2022-07-28T06:27:59.726Z,21.90
2022-07-28T06:32:12.830Z,22.20
2022-07-28T06:36:25.929Z,22.10
2022-07-28T06:40:40.483Z,21.80
2022-07-28T06:45:01.286Z,21.70
2022-07-28T06:49:14.659Z,22.20
2022-07-28T06:53:32.411Z,22.10
2022-07-28T06:57:48.562Z,22.00
2022-07-28T07:02:02.409Z,22.00
2022-07-28T07:06:15.541Z,21.90
2022-07-28T07:10:29.147Z,21.90
2022-07-28T07:14:43.590Z,21.90
2022-07-28T07:18:56.699Z,22.00
2022-07-28T07:23:14.629Z,22.00
2022-07-28T07:27:27.716Z,22.40
2022-07-28T07:31:42.232Z,22.60
2022-07-28T07:35:55.381Z,22.70
2022-07-28T07:40:10.204Z,22.70
2022-07-28T07:44:23.302Z,22.60
2022-07-28T07:48:37.856Z,22.80
2022-07-28T07:52:51.036Z,22.80
2022-07-28T07:57:05.992Z,23.00
2022-07-28T08:01:19.269Z,23.20
2022-07-28T08:05:35.847Z,23.40
2022-07-28T08:09:49.465Z,23.50
2022-07-28T08:14:02.570Z,23.60
2022-07-28T08:18:15.838Z,24.00
2022-07-28T08:22:30.413Z,24.20
2022-07-28T08:26:43.516Z,24.50
2022-07-28T08:30:56.748Z,24.70
2022-07-28T08:35:32.374Z,24.80
2022-07-28T08:39:44.806Z,24.80
2022-07-28T08:43:59.986Z,24.70
2022-07-28T08:48:14.193Z,24.90
2022-07-28T08:52:31.058Z,25.10
2022-07-28T08:56:48.116Z,25.20
2022-07-28T09:01:01.865Z,25.30
2022-07-28T09:05:15.465Z,25.40
2022-07-28T09:09:28.728Z,25.60
2022-07-28T09:13:43.229Z,25.70
2022-07-28T09:17:56.707Z,25.90
2022-07-28T09:22:09.848Z,25.90
2022-07-28T09:26:23.002Z,26.00
2022-07-28T09:30:53.320Z,26.10
2022-07-28T09:35:20.183Z,26.20
2022-07-28T09:39:34.318Z,26.50
2022-07-28T09:43:53.910Z,26.70
2022-07-28T09:48:15.049Z,26.90
2022-07-28T09:52:30.337Z,27.10
2022-07-28T09:56:45.840Z,27.30
2022-07-28T10:01:07.175Z,27.40
2022-07-28T10:05:22.558Z,27.40
2022-07-28T10:09:35.680Z,27.40
2022-07-28T10:14:00.405Z,27.40
2022-07-28T10:18:14.054Z,27.50
2022-07-28T10:22:33.146Z,27.80
2022-07-28T10:26:48.107Z,28.30
2022-07-28T10:31:03.862Z,28.50
2022-07-28T10:35:18.348Z,28.60
2022-07-28T10:39:40.587Z,28.80
2022-07-28T10:43:54.306Z,29.10
2022-07-28T10:48:08.251Z,29.30
2022-07-28T10:52:46.140Z,29.30
2022-07-28T10:57:04.917Z,29.50
2022-07-28T11:01:49.099Z,29.70
2022-07-28T11:06:26.238Z,30.00
2022-07-28T11:10:47.481Z,30.40
2022-07-28T11:15:18.198Z,30.70
2022-07-28T11:20:06.938Z,30.90
2022-07-28T11:24:26.963Z,31.10
2022-07-28T11:29:13.814Z,31.30
2022-07-28T11:33:57.588Z,31.50
2022-07-28T11:38:15.565Z,31.60
2022-07-28T11:42:33.880Z,31.80
2022-07-28T11:46:47.354Z,32.30
2022-07-28T11:51:16.804Z,32.70
2022-07-28T11:55:55.499Z,33.20
2022-07-28T12:00:06.761Z,33.80
2022-07-28T12:04:26.994Z,34.00
2022-07-28T12:08:54.918Z,34.40
2022-07-28T12:13:09.402Z,34.90
2022-07-28T12:17:22.765Z,34.80
2022-07-28T12:26:04.610Z,35.40
2022-07-28T12:30:24.618Z,35.70
2022-07-28T12:34:40.049Z,36.10
2022-07-28T12:38:54.036Z,36.40
2022-07-28T12:43:08.473Z,36.40
2022-07-28T12:47:28.675Z,36.60
2022-07-28T12:51:45.426Z,37.10
2022-07-28T12:56:02.575Z,37.20
2022-07-28T13:00:20.189Z,37.60
2022-07-28T13:04:46.938Z,37.90
2022-07-28T13:09:00.107Z,38.20
2022-07-28T13:13:13.829Z,38.90
2022-07-28T13:17:33.225Z,39.10
2022-07-28T13:21:57.088Z,39.10
2022-07-28T13:26:12.970Z,39.00
2022-07-28T13:30:26.152Z,39.30
2022-07-28T13:34:40.596Z,39.80
2022-07-28T13:38:54.438Z,40.40
2022-07-28T13:43:11.194Z,40.00
2022-07-28T13:47:27.016Z,38.60
2022-07-28T13:51:51.140Z,38.10
2022-07-28T13:56:05.364Z,39.00
2022-07-28T14:00:19.522Z,40.10
2022-07-28T14:04:36.040Z,40.60
2022-07-28T14:08:54.605Z,41.00
2022-07-28T14:13:09.691Z,41.10
2022-07-28T14:21:57.196Z,42.20
2022-07-28T14:26:34.949Z,42.30
2022-07-28T14:30:47.752Z,41.80
2022-07-28T14:35:02.346Z,41.40
2022-07-28T14:39:15.795Z,39.80
2022-07-28T14:43:30.252Z,38.40
2022-07-28T14:47:46.220Z,38.10
2022-07-28T14:51:59.512Z,38.60
2022-07-28T14:56:16.177Z,39.90
2022-07-28T15:00:30.652Z,40.90
2022-07-28T15:04:43.992Z,40.90
2022-07-28T15:08:57.858Z,42.00
2022-07-28T15:13:10.953Z,41.70
2022-07-28T15:17:25.461Z,40.30
2022-07-28T15:21:40.613Z,40.90
2022-07-28T15:25:56.092Z,42.00
2022-07-28T15:30:10.756Z,42.80
2022-07-28T15:34:27.098Z,42.40
2022-07-28T15:38:41.616Z,42.00
2022-07-28T15:42:55.146Z,42.20
2022-07-28T15:47:08.496Z,42.90
2022-07-28T15:51:25.996Z,43.30
2022-07-28T15:55:39.581Z,43.70
2022-07-28T15:59:52.721Z,44.30
2022-07-28T16:04:11.383Z,44.30
2022-07-28T16:08:25.939Z,44.40
2022-07-28T16:12:42.089Z,44.50
2022-07-28T16:16:55.357Z,44.70
2022-07-28T16:21:11.140Z,44.80
2022-07-28T16:25:26.188Z,44.60
2022-07-28T16:29:39.354Z,44.70
2022-07-28T16:33:52.454Z,44.70
2022-07-28T16:38:06.969Z,44.60
2022-07-28T16:42:21.455Z,44.60
2022-07-28T16:46:34.573Z,44.60
2022-07-28T16:50:47.743Z,43.60
2022-07-28T16:55:00.850Z,43.60
2022-07-28T16:59:15.309Z,44.00
2022-07-28T17:03:28.377Z,44.20
2022-07-28T17:07:45.572Z,44.10
2022-07-28T17:11:59.266Z,44.10
2022-07-28T17:16:13.941Z,43.90
2022-07-28T17:20:27.952Z,43.30
2022-07-28T17:24:41.042Z,42.70
2022-07-28T17:28:54.132Z,42.50
2022-07-28T17:33:09.134Z,42.30
2022-07-28T17:37:22.509Z,42.10
2022-07-28T17:41:35.724Z,41.60
2022-07-28T17:45:49.678Z,41.20
2022-07-28T17:50:04.461Z,40.70
2022-07-28T17:54:19.250Z,40.00
2022-07-28T17:58:34.419Z,39.40
2022-07-28T18:02:48.216Z,38.80
2022-07-28T18:07:02.782Z,38.10
2022-07-28T18:11:15.919Z,37.30
2022-07-28T18:15:29.062Z,36.20
2022-07-28T18:19:45.724Z,35.20
2022-07-28T18:24:00.225Z,34.00
2022-07-28T18:28:13.626Z,32.90
2022-07-28T18:32:26.722Z,32.10
2022-07-28T18:36:41.329Z,31.40
2022-07-28T18:40:55.913Z,31.00
2022-07-28T18:45:10.101Z,30.50
2022-07-28T18:49:26.910Z,30.10
2022-07-28T18:53:40.270Z,29.80
2022-07-28T18:57:54.720Z,29.40
2022-07-28T19:02:07.925Z,29.10
2022-07-28T19:06:21.397Z,28.80
2022-07-28T19:10:34.563Z,28.60
2022-07-28T19:14:49.236Z,28.30
2022-07-28T19:19:02.327Z,28.10
2022-07-28T19:23:15.587Z,27.90
2022-07-28T19:27:30.687Z,27.80
2022-07-28T19:31:45.744Z,27.60
2022-07-28T19:35:59.305Z,27.50
2022-07-28T19:40:13.826Z,27.40
2022-07-28T19:44:30.641Z,27.20
2022-07-28T19:48:47.027Z,27.10
2022-07-28T19:53:01.273Z,26.90
2022-07-28T19:57:15.371Z,26.70
2022-07-28T20:01:28.799Z,26.40
2022-07-28T20:05:44.080Z,26.20
2022-07-28T20:09:57.176Z,26.00
2022-07-28T20:14:10.285Z,25.90
2022-07-28T20:18:23.472Z,25.70
2022-07-28T20:22:38.577Z,25.70
2022-07-28T20:26:51.769Z,25.60
2022-07-28T20:31:04.963Z,25.40
2022-07-28T20:35:18.149Z,25.20
2022-07-28T20:39:44.423Z,25.00
2022-07-28T20:44:27.261Z,24.90
2022-07-28T20:48:31.582Z,24.70
2022-07-28T20:52:44.974Z,24.70
2022-07-28T20:56:59.470Z,24.60
2022-07-28T21:01:14.648Z,24.50
2022-07-28T21:05:35.841Z,24.50
2022-07-28T21:09:49.381Z,24.20
2022-07-28T21:14:04.010Z,24.10
2022-07-28T21:18:18.107Z,24.00
2022-07-28T21:22:34.259Z,23.90
2022-07-28T21:26:49.540Z,24.00
2022-07-28T21:31:04.035Z,23.90
2022-07-28T21:35:17.510Z,23.90
2022-07-28T21:39:30.632Z,23.80
2022-07-28T21:43:43.721Z,23.70
2022-07-28T21:47:58.457Z,23.70
2022-07-28T21:52:11.549Z,23.60
2022-07-28T21:56:24.611Z,23.60
2022-07-28T22:00:37.766Z,23.50
2022-07-28T22:04:52.295Z,23.50
2022-07-28T22:09:05.563Z,23.40
2022-07-28T22:13:19.197Z,23.40
2022-07-28T22:17:32.276Z,23.40
2022-07-28T22:21:47.865Z,23.40
2022-07-28T22:26:01.139Z,23.20
2022-07-28T22:30:14.479Z,23.10
2022-07-28T22:34:27.973Z,22.90
2022-07-28T22:38:42.423Z,22.90
2022-07-28T22:42:55.498Z,22.80
2022-07-28T22:47:08.631Z,22.70
2022-07-28T22:51:21.828Z,22.70
2022-07-28T22:55:36.298Z,22.60
2022-07-28T22:59:51.258Z,22.60
2022-07-28T23:04:05.494Z,22.50
2022-07-28T23:08:20.723Z,22.50
2022-07-28T23:12:35.155Z,22.40
2022-07-28T23:16:48.252Z,22.30
2022-07-28T23:21:02.913Z,22.20
2022-07-28T23:25:16.137Z,22.20
2022-07-28T23:29:30.848Z,22.10
2022-07-28T23:33:56.306Z,22.10
2022-07-28T23:38:10.716Z,22.00
2022-07-28T23:42:24.095Z,21.90
2022-07-28T23:46:38.578Z,21.90
2022-07-28T23:50:51.880Z,21.80
2022-07-28T23:55:05.591Z,21.70
2022-07-28T23:59:21.434Z,21.60
